createdAt,value
2019-01-30T00:01:47.147Z,219.30
2019-01-30T00:04:15.635Z,231.23
2019-01-30T00:06:43.591Z,206.00
2019-01-30T00:09:11.535Z,204.75
2019-01-30T00:11:39.436Z,202.25
2019-01-30T00:14:07.359Z,213.40
2019-01-30T00:16:35.124Z,201.75
2019-01-30T00:19:05.156Z,181.52
2019-01-30T00:21:33.018Z,189.30
2019-01-30T00:24:00.778Z,191.57
2019-01-30T00:26:28.637Z,161.32
2019-01-30T00:28:56.441Z,169.57
2019-01-30T00:31:24.389Z,178.75
2019-01-30T00:33:52.071Z,185.50
2019-01-30T00:36:23.053Z,225.65
2019-01-30T00:38:50.777Z,151.65
2019-01-30T00:41:18.743Z,135.70
2019-01-30T00:43:46.499Z,149.70
2019-01-30T00:46:14.467Z,156.12
2019-01-30T00:48:42.292Z,129.12
2019-01-30T00:51:10.215Z,138.72
2019-01-30T00:53:39.193Z,129.78
2019-01-30T00:56:07.176Z,123.53
2019-01-30T00:58:34.961Z,119.57
2019-01-30T01:01:05.373Z,113.52
2019-01-30T01:03:34.882Z,125.70
2019-01-30T01:06:03.470Z,108.95
2019-01-30T01:08:31.493Z,97.82
2019-01-30T01:10:59.185Z,99.92
2019-01-30T01:13:27.118Z,105.92
2019-01-30T01:15:54.895Z,105.92
2019-01-30T01:18:22.853Z,96.82
2019-01-30T01:20:50.740Z,93.30
2019-01-30T01:23:20.699Z,94.30
2019-01-30T01:25:48.429Z,95.50
2019-01-30T01:28:16.403Z,79.82
2019-01-30T01:30:44.166Z,94.80
2019-01-30T01:33:12.099Z,80.50
2019-01-30T01:35:40.071Z,88.70
2019-01-30T01:38:07.923Z,84.28
2019-01-30T01:40:35.716Z,87.17
2019-01-30T01:43:03.598Z,80.05
2019-01-30T01:45:31.434Z,76.20
2019-01-30T01:47:59.228Z,85.17
2019-01-30T01:50:27.185Z,85.92
2019-01-30T01:53:00.311Z,79.47
2019-01-30T01:55:29.086Z,78.47
2019-01-30T01:57:56.888Z,76.55
2019-01-30T02:00:35.025Z,78.65
2019-01-30T02:02:55.137Z,78.70
2019-01-30T02:05:29.064Z,84.10
2019-01-30T02:07:57.013Z,80.28
2019-01-30T02:10:24.934Z,79.85
2019-01-30T02:12:53.316Z,78.87
2019-01-30T02:15:22.203Z,81.35
2019-01-30T02:17:50.279Z,77.72
2019-01-30T02:20:27.112Z,90.87
2019-01-30T02:22:55.250Z,86.25
2019-01-30T02:25:27.711Z,87.33
2019-01-30T02:27:56.727Z,86.67
2019-01-30T02:30:28.690Z,85.60
2019-01-30T02:32:56.549Z,90.60
2019-01-30T02:35:24.554Z,86.20
2019-01-30T02:37:52.705Z,92.08
2019-01-30T02:40:20.980Z,84.58
2019-01-30T02:42:49.110Z,86.35
2019-01-30T02:45:19.906Z,99.28
2019-01-30T02:47:52.064Z,92.88
2019-01-30T02:50:20.497Z,84.90
2019-01-30T02:52:49.888Z,83.90
2019-01-30T02:55:19.528Z,76.45
2019-01-30T02:57:48.439Z,72.05
2019-01-30T03:00:35.485Z,79.53
2019-01-30T03:03:04.249Z,85.17
2019-01-30T03:05:39.055Z,84.77
2019-01-30T03:08:06.927Z,80.35
2019-01-30T03:10:36.153Z,87.62
2019-01-30T03:13:05.027Z,77.75
2019-01-30T03:15:34.858Z,94.05
2019-01-30T03:18:03.114Z,89.72
2019-01-30T03:20:31.044Z,87.30
2019-01-30T03:22:58.980Z,88.78
2019-01-30T03:25:26.724Z,82.50
2019-01-30T03:27:54.646Z,79.50
2019-01-30T03:30:26.223Z,91.28
2019-01-30T03:32:57.990Z,85.32
2019-01-30T03:35:25.772Z,99.62
2019-01-30T03:37:55.266Z,88.33
2019-01-30T03:40:24.420Z,95.03
2019-01-30T03:42:52.439Z,77.10
2019-01-30T03:45:21.600Z,80.83
2019-01-30T03:47:50.103Z,76.35
2019-01-30T03:50:20.428Z,79.85
2019-01-30T03:52:49.511Z,59.25
2019-01-30T03:55:17.790Z,65.45
2019-01-30T03:57:45.881Z,63.33
2019-01-30T04:00:19.961Z,60.75
2019-01-30T04:02:48.248Z,68.05
2019-01-30T04:05:17.348Z,51.20
2019-01-30T04:07:45.419Z,56.92
2019-01-30T04:10:16.199Z,47.55
2019-01-30T04:12:44.729Z,53.70
2019-01-30T04:15:13.565Z,55.38
2019-01-30T04:17:41.458Z,55.95
2019-01-30T04:20:10.718Z,52.23
2019-01-30T04:22:39.993Z,61.65
2019-01-30T04:25:08.836Z,54.73
2019-01-30T04:27:37.059Z,56.45
2019-01-30T04:30:10.383Z,57.03
2019-01-30T04:32:38.923Z,65.00
2019-01-30T04:35:06.845Z,52.70
2019-01-30T04:37:35.802Z,62.83
2019-01-30T04:40:06.305Z,59.18
2019-01-30T04:42:34.431Z,60.63
2019-01-30T04:45:02.431Z,61.85
2019-01-30T04:47:33.149Z,66.40
2019-01-30T04:50:02.286Z,62.62
2019-01-30T04:52:30.370Z,61.08
2019-01-30T04:54:58.308Z,65.55
2019-01-30T04:57:26.102Z,57.50
2019-01-30T04:59:54.033Z,62.03
2019-01-30T05:02:24.017Z,58.50
2019-01-30T05:04:51.919Z,61.92
2019-01-30T05:07:20.974Z,55.12
2019-01-30T05:09:48.764Z,60.45
2019-01-30T05:12:18.728Z,60.30
2019-01-30T05:14:47.804Z,57.40
2019-01-30T05:17:18.560Z,56.30
2019-01-30T05:19:46.698Z,53.75
2019-01-30T05:22:14.608Z,47.43
2019-01-30T05:24:42.544Z,56.65
2019-01-30T05:27:10.318Z,53.83
2019-01-30T05:29:39.503Z,52.50
2019-01-30T05:32:07.300Z,54.10
2019-01-30T05:34:35.227Z,52.15
2019-01-30T05:37:03.206Z,64.70
2019-01-30T05:39:32.943Z,54.98
2019-01-30T05:42:00.962Z,63.90
2019-01-30T05:44:28.701Z,60.25
2019-01-30T05:46:56.662Z,54.53
2019-01-30T05:49:29.250Z,56.25
2019-01-30T05:51:57.326Z,51.83
2019-01-30T05:54:27.620Z,53.58
2019-01-30T05:56:55.384Z,65.17
2019-01-30T05:59:23.468Z,56.83
2019-01-30T06:01:51.983Z,63.90
2019-01-30T06:04:19.984Z,66.30
2019-01-30T06:06:48.093Z,65.30
2019-01-30T06:09:18.257Z,63.60
2019-01-30T06:11:46.344Z,76.80
2019-01-30T06:14:14.103Z,74.55
2019-01-30T06:16:42.020Z,68.00
2019-01-30T06:19:10.155Z,66.07
2019-01-30T06:21:38.136Z,70.90
2019-01-30T06:24:06.147Z,70.25
2019-01-30T06:26:33.994Z,63.98
2019-01-30T06:29:01.932Z,73.97
2019-01-30T06:31:30.025Z,76.17
2019-01-30T06:33:57.957Z,69.50
2019-01-30T06:36:25.662Z,104.55
2019-01-30T06:38:54.637Z,83.95
2019-01-30T06:41:22.405Z,78.60
2019-01-30T06:43:55.985Z,81.53
2019-01-30T06:46:23.953Z,77.60
2019-01-30T06:48:57.126Z,68.62
2019-01-30T06:51:24.911Z,76.00
2019-01-30T06:53:57.421Z,76.80
2019-01-30T06:56:25.481Z,91.60
2019-01-30T06:58:55.586Z,104.25
2019-01-30T07:01:23.680Z,99.60
2019-01-30T07:03:51.373Z,106.03
2019-01-30T07:06:19.047Z,111.03
2019-01-30T07:08:47.017Z,104.85
2019-01-30T07:11:15.971Z,110.52
2019-01-30T07:13:56.117Z,101.22
2019-01-30T07:16:24.028Z,103.83
2019-01-30T07:18:53.179Z,102.42
2019-01-30T07:21:20.935Z,83.80
2019-01-30T07:23:55.398Z,68.40
2019-01-30T07:26:31.434Z,73.45
2019-01-30T07:28:59.497Z,75.05
2019-01-30T07:31:27.645Z,80.35
2019-01-30T07:33:56.754Z,83.40
2019-01-30T07:36:24.600Z,88.95
2019-01-30T07:38:54.495Z,97.25
2019-01-30T07:41:22.297Z,87.15
2019-01-30T07:43:50.259Z,84.65
2019-01-30T07:46:18.081Z,81.10
2019-01-30T07:48:46.224Z,81.35
2019-01-30T07:51:15.858Z,74.67
2019-01-30T07:53:45.069Z,69.30
2019-01-30T07:56:12.759Z,73.80
2019-01-30T07:58:40.740Z,74.03
2019-01-30T08:01:08.543Z,84.00
2019-01-30T08:03:38.960Z,83.92
2019-01-30T08:06:06.406Z,86.90
2019-01-30T08:08:34.210Z,85.70
2019-01-30T08:11:02.048Z,87.57
2019-01-30T08:13:29.934Z,74.50
2019-01-30T08:15:58.116Z,79.35
2019-01-30T08:18:26.088Z,86.72
2019-01-30T08:20:53.939Z,89.40
2019-01-30T08:23:21.977Z,85.85
2019-01-30T08:25:50.545Z,76.57
2019-01-30T08:28:18.431Z,78.62
2019-01-30T08:30:46.620Z,69.32
2019-01-30T08:33:15.109Z,74.62
2019-01-30T08:35:44.136Z,73.15
2019-01-30T08:38:11.992Z,88.67
2019-01-30T08:40:40.147Z,84.47
2019-01-30T08:43:10.203Z,92.33
2019-01-30T08:45:38.875Z,83.82
2019-01-30T08:48:07.036Z,80.77
2019-01-30T08:50:34.918Z,87.40
2019-01-30T08:53:02.866Z,89.00
2019-01-30T08:55:30.683Z,85.07
2019-01-30T08:57:58.532Z,84.03
2019-01-30T09:00:27.987Z,75.83
2019-01-30T09:02:56.020Z,88.22
2019-01-30T09:05:23.876Z,83.33
2019-01-30T09:07:52.303Z,88.65
2019-01-30T09:10:21.376Z,84.28
2019-01-30T09:12:49.514Z,87.25
2019-01-30T09:15:18.919Z,92.00
2019-01-30T09:17:47.364Z,93.22
2019-01-30T09:20:19.812Z,86.75
2019-01-30T09:22:48.028Z,77.72
2019-01-30T09:25:18.034Z,99.85
2019-01-30T09:27:46.133Z,90.17
2019-01-30T09:30:25.879Z,104.47
2019-01-30T09:32:55.500Z,93.92
2019-01-30T09:35:23.767Z,95.10
2019-01-30T09:37:52.561Z,67.10
2019-01-30T09:40:20.623Z,58.63
2019-01-30T09:42:48.427Z,47.77
2019-01-30T09:45:17.651Z,52.13
2019-01-30T09:47:45.648Z,58.30
2019-01-30T09:50:17.273Z,51.37
2019-01-30T09:52:48.260Z,51.87
2019-01-30T09:55:16.449Z,48.57
2019-01-30T09:57:44.325Z,42.80
2019-01-30T10:00:18.039Z,26.93
2019-01-30T10:02:46.193Z,21.77
2019-01-30T10:05:18.106Z,20.17
2019-01-30T10:07:45.920Z,15.80
2019-01-30T10:10:19.462Z,22.05
2019-01-30T10:12:47.384Z,28.25
2019-01-30T10:15:17.261Z,24.77
2019-01-30T10:17:45.542Z,18.42
2019-01-30T10:20:16.328Z,22.62
2019-01-30T10:22:44.155Z,24.37
2019-01-30T10:25:12.074Z,44.60
2019-01-30T10:27:41.494Z,23.75
2019-01-30T10:30:12.399Z,21.33
2019-01-30T10:32:40.525Z,20.60
2019-01-30T10:35:08.803Z,26.20
2019-01-30T10:37:36.777Z,19.48
2019-01-30T10:40:06.721Z,22.50
2019-01-30T10:42:34.648Z,30.30
2019-01-30T10:45:03.870Z,29.80
2019-01-30T10:47:36.337Z,33.88
2019-01-30T10:50:05.780Z,22.30
2019-01-30T10:52:33.531Z,21.00
2019-01-30T10:55:01.602Z,24.60
2019-01-30T10:57:29.537Z,29.20
2019-01-30T10:59:57.624Z,23.55
2019-01-30T11:02:26.497Z,23.60
2019-01-30T11:04:54.695Z,23.07
2019-01-30T11:07:23.851Z,21.02
2019-01-30T11:09:51.554Z,22.40
2019-01-30T11:12:19.469Z,19.85
2019-01-30T11:14:47.403Z,16.87
2019-01-30T11:17:15.234Z,14.58
2019-01-30T11:19:45.473Z,11.15
2019-01-30T11:22:13.745Z,13.90
2019-01-30T11:24:41.878Z,20.97
2019-01-30T11:27:10.004Z,14.10
2019-01-30T11:29:37.843Z,16.20
2019-01-30T11:32:05.603Z,12.25
2019-01-30T11:34:34.403Z,13.62
2019-01-30T11:37:02.162Z,12.13
2019-01-30T11:39:30.110Z,11.43
2019-01-30T11:41:58.004Z,14.35
2019-01-30T11:44:38.191Z,14.07
2019-01-30T11:47:06.088Z,11.97
2019-01-30T11:49:35.100Z,11.43
2019-01-30T11:52:03.114Z,10.68
2019-01-30T11:54:38.703Z,13.05
2019-01-30T11:57:01.924Z,14.95
2019-01-30T11:59:31.936Z,11.63
2019-01-30T12:01:59.706Z,11.60
2019-01-30T12:04:28.472Z,13.90
2019-01-30T12:06:56.176Z,11.90
2019-01-30T12:09:32.110Z,13.60
2019-01-30T12:11:59.789Z,20.40
2019-01-30T12:14:27.507Z,13.13
2019-01-30T12:16:55.477Z,13.25
2019-01-30T12:19:26.443Z,13.25
2019-01-30T12:21:54.489Z,16.20
2019-01-30T12:24:22.414Z,13.95
2019-01-30T12:26:51.484Z,19.42
2019-01-30T12:29:19.396Z,13.25
2019-01-30T12:31:48.671Z,14.63
2019-01-30T12:34:16.345Z,26.87
2019-01-30T12:36:44.234Z,13.53
2019-01-30T12:39:13.319Z,15.75
2019-01-30T12:41:43.295Z,21.02
2019-01-30T12:44:11.277Z,14.30
2019-01-30T12:46:39.812Z,12.55
2019-01-30T12:49:07.667Z,12.53
2019-01-30T12:51:36.274Z,11.88
2019-01-30T12:54:08.282Z,15.65
2019-01-30T12:56:38.746Z,23.12
2019-01-30T12:59:06.479Z,10.85
2019-01-30T13:01:36.353Z,17.30
2019-01-30T13:04:04.494Z,30.97
2019-01-30T13:06:36.045Z,14.73
2019-01-30T13:09:07.547Z,12.68
2019-01-30T13:11:37.311Z,19.90
2019-01-30T13:14:06.136Z,16.12
2019-01-30T13:16:34.452Z,17.15
2019-01-30T13:19:02.638Z,23.70
2019-01-30T13:21:30.720Z,12.05
2019-01-30T13:23:58.663Z,16.30
2019-01-30T13:26:28.542Z,10.72
2019-01-30T13:28:56.573Z,20.60
2019-01-30T13:31:25.466Z,25.48
2019-01-30T13:33:53.424Z,17.42
2019-01-30T13:36:21.202Z,16.52
2019-01-30T13:38:48.889Z,21.70
2019-01-30T13:41:16.959Z,19.52
2019-01-30T13:43:45.698Z,22.40
2019-01-30T13:46:13.892Z,24.57
2019-01-30T13:48:42.003Z,27.35
2019-01-30T13:51:11.358Z,30.70
2019-01-30T13:53:41.673Z,36.80
2019-01-30T13:56:09.656Z,26.00
2019-01-30T13:58:38.042Z,29.02
2019-01-30T14:01:16.983Z,30.92
2019-01-30T14:03:36.339Z,32.20
2019-01-30T14:06:04.113Z,37.28
2019-01-30T14:08:32.083Z,32.48
2019-01-30T14:11:00.101Z,36.93
2019-01-30T14:13:34.817Z,35.75
2019-01-30T14:16:02.708Z,37.05
2019-01-30T14:18:30.946Z,32.23
2019-01-30T14:20:59.294Z,38.88
2019-01-30T14:23:29.165Z,36.17
2019-01-30T14:25:57.083Z,41.45
2019-01-30T14:28:24.935Z,49.73
2019-01-30T14:30:52.625Z,42.93
2019-01-30T14:33:20.558Z,33.50
2019-01-30T14:35:50.458Z,39.20
2019-01-30T14:38:18.182Z,33.13
2019-01-30T14:40:46.424Z,33.65
2019-01-30T14:43:14.167Z,30.55
2019-01-30T14:45:41.954Z,36.08
2019-01-30T14:48:09.891Z,30.30
2019-01-30T14:50:39.511Z,33.65
2019-01-30T14:53:08.085Z,38.55
2019-01-30T14:55:38.141Z,35.88
2019-01-30T14:58:08.303Z,35.60
2019-01-30T15:00:37.852Z,33.98
2019-01-30T15:03:05.927Z,31.50
2019-01-30T15:05:34.310Z,28.92
2019-01-30T15:08:01.986Z,32.53
2019-01-30T15:10:32.255Z,30.37
2019-01-30T15:13:00.184Z,24.82
2019-01-30T15:15:31.153Z,26.33
2019-01-30T15:18:01.082Z,22.25
2019-01-30T15:20:34.227Z,25.62
2019-01-30T15:23:03.614Z,18.92
2019-01-30T15:25:32.589Z,19.67
2019-01-30T15:28:00.716Z,18.67
2019-01-30T15:30:34.086Z,19.67
2019-01-30T15:33:02.272Z,20.30
2019-01-30T15:35:33.558Z,20.82
2019-01-30T15:38:04.372Z,29.50
2019-01-30T15:40:33.232Z,25.00
2019-01-30T15:43:01.097Z,22.37
2019-01-30T15:45:31.086Z,21.65
2019-01-30T15:47:59.027Z,29.48
2019-01-30T15:50:32.645Z,37.85
2019-01-30T15:53:01.806Z,39.10
2019-01-30T15:55:31.680Z,36.13
2019-01-30T15:58:05.712Z,44.73
2019-01-30T16:00:44.129Z,49.83
2019-01-30T16:03:12.361Z,36.13
2019-01-30T16:05:44.925Z,40.17
2019-01-30T16:08:12.076Z,41.53
2019-01-30T16:10:39.870Z,42.88
2019-01-30T16:13:07.796Z,31.68
2019-01-30T16:15:41.770Z,35.48
2019-01-30T16:18:09.882Z,34.00
2019-01-30T16:20:41.281Z,40.03
2019-01-30T16:23:09.308Z,33.63
2019-01-30T16:25:37.310Z,34.92
2019-01-30T16:28:05.720Z,29.95
2019-01-30T16:30:35.665Z,28.52
2019-01-30T16:33:04.403Z,36.38
2019-01-30T16:35:32.273Z,27.32
2019-01-30T16:37:59.961Z,38.33
2019-01-30T16:40:27.843Z,40.80
2019-01-30T16:42:55.739Z,37.75
2019-01-30T16:45:25.487Z,42.85
2019-01-30T16:47:53.715Z,33.15
2019-01-30T16:50:22.368Z,35.43
2019-01-30T16:52:50.881Z,35.60
2019-01-30T16:55:20.413Z,27.73
2019-01-30T16:57:48.262Z,24.92
2019-01-30T17:00:20.654Z,24.85
2019-01-30T17:02:48.415Z,32.17
2019-01-30T17:05:19.411Z,23.02
2019-01-30T17:07:47.437Z,34.85
2019-01-30T17:10:16.072Z,31.68
2019-01-30T17:12:44.975Z,36.93
2019-01-30T17:15:15.555Z,39.92
2019-01-30T17:17:43.959Z,33.90
2019-01-30T17:20:16.191Z,33.10
2019-01-30T17:22:44.212Z,26.00
2019-01-30T17:25:13.352Z,28.17
2019-01-30T17:27:41.910Z,31.27
2019-01-30T17:30:16.574Z,30.77
2019-01-30T17:32:45.419Z,26.15
2019-01-30T17:35:13.568Z,28.07
2019-01-30T17:37:42.309Z,28.40
2019-01-30T17:40:14.109Z,32.05
2019-01-30T17:42:42.959Z,26.77
2019-01-30T17:45:11.068Z,29.65
2019-01-30T17:47:38.989Z,25.15
2019-01-30T17:50:08.408Z,25.23
2019-01-30T17:52:37.368Z,24.35
2019-01-30T17:55:05.687Z,24.30
2019-01-30T17:57:34.910Z,23.50
2019-01-30T18:00:08.629Z,23.35
2019-01-30T18:02:36.592Z,21.77
2019-01-30T18:05:06.003Z,23.10
2019-01-30T18:07:33.947Z,25.25
2019-01-30T18:10:04.477Z,22.45
2019-01-30T18:12:32.231Z,21.65
2019-01-30T18:15:02.311Z,23.50
2019-01-30T18:17:30.035Z,18.95
2019-01-30T18:19:58.141Z,22.60
2019-01-30T18:22:26.002Z,22.45
2019-01-30T18:24:54.798Z,20.57
2019-01-30T18:27:22.680Z,23.27
2019-01-30T18:29:54.599Z,18.45
2019-01-30T18:32:22.768Z,16.55
2019-01-30T18:34:54.022Z,17.37
2019-01-30T18:37:21.793Z,16.87
2019-01-30T18:39:49.841Z,17.65
2019-01-30T18:42:17.994Z,15.15
2019-01-30T18:44:45.887Z,14.00
2019-01-30T18:47:13.665Z,14.80
2019-01-30T18:49:42.062Z,16.62
2019-01-30T18:52:10.203Z,12.93
2019-01-30T18:54:38.179Z,14.68
2019-01-30T18:57:05.957Z,15.75
2019-01-30T18:59:33.967Z,16.15
2019-01-30T19:02:01.861Z,16.57
2019-01-30T19:04:30.018Z,16.35
2019-01-30T19:06:57.932Z,13.45
2019-01-30T19:09:25.800Z,14.35
2019-01-30T19:11:53.623Z,13.88
2019-01-30T19:14:21.512Z,14.10
2019-01-30T19:16:49.427Z,13.45
2019-01-30T19:19:17.247Z,13.03
2019-01-30T19:21:45.492Z,14.00
2019-01-30T19:24:13.452Z,11.57
2019-01-30T19:26:41.205Z,17.23
2019-01-30T19:29:09.286Z,13.75
2019-01-30T19:31:37.580Z,13.13
2019-01-30T19:34:05.654Z,11.63
2019-01-30T19:36:33.542Z,13.10
2019-01-30T19:39:01.823Z,15.48
2019-01-30T19:41:31.321Z,14.65
2019-01-30T19:43:59.261Z,12.68
2019-01-30T19:46:28.264Z,14.78
2019-01-30T19:48:58.216Z,13.88
2019-01-30T19:51:26.072Z,13.08
2019-01-30T19:53:55.158Z,13.75
2019-01-30T19:56:24.249Z,14.18
2019-01-30T19:58:52.037Z,13.70
2019-01-30T20:01:19.720Z,15.53
2019-01-30T20:03:52.651Z,11.97
2019-01-30T20:06:20.997Z,13.03
2019-01-30T20:08:50.931Z,13.45
2019-01-30T20:11:18.817Z,14.38
2019-01-30T20:13:46.744Z,12.63
2019-01-30T20:16:14.669Z,12.63
2019-01-30T20:18:43.456Z,11.90
2019-01-30T20:21:12.349Z,10.15
2019-01-30T20:23:40.700Z,15.28
2019-01-30T20:26:08.628Z,15.00
2019-01-30T20:28:36.832Z,35.75
2019-01-30T20:31:04.852Z,10.95
2019-01-30T20:33:32.834Z,9.65
2019-01-30T20:36:02.939Z,6.78
2019-01-30T20:38:30.630Z,9.40
2019-01-30T20:40:58.571Z,8.48
2019-01-30T20:43:29.213Z,8.25
2019-01-30T20:45:57.666Z,8.23
2019-01-30T20:48:25.358Z,10.25
2019-01-30T20:50:54.219Z,10.95
2019-01-30T20:53:21.976Z,10.85
2019-01-30T20:55:53.152Z,14.65
2019-01-30T20:58:21.035Z,10.40
2019-01-30T21:00:48.889Z,10.85
2019-01-30T21:03:16.717Z,11.25
2019-01-30T21:05:45.125Z,10.63
2019-01-30T21:08:13.295Z,12.13
2019-01-30T21:10:41.867Z,11.55
2019-01-30T21:13:10.821Z,13.62
2019-01-30T21:15:38.957Z,10.72
2019-01-30T21:18:06.909Z,11.75
2019-01-30T21:20:35.072Z,11.57
2019-01-30T21:23:03.625Z,14.98
2019-01-30T21:25:32.352Z,14.20
2019-01-30T21:28:00.312Z,15.35
2019-01-30T21:30:30.584Z,15.32
2019-01-30T21:32:58.740Z,14.15
2019-01-30T21:35:27.199Z,14.87
2019-01-30T21:37:54.903Z,12.03
2019-01-30T21:40:22.967Z,11.05
2019-01-30T21:42:50.969Z,8.48
2019-01-30T21:45:20.689Z,12.82
2019-01-30T21:47:49.971Z,11.15
2019-01-30T21:50:18.416Z,12.37
2019-01-30T21:52:47.366Z,10.95
2019-01-30T21:55:20.420Z,9.35
2019-01-30T21:57:48.324Z,9.83
2019-01-30T22:00:21.547Z,10.98
2019-01-30T22:02:50.593Z,10.10
2019-01-30T22:05:18.508Z,8.48
2019-01-30T22:08:00.627Z,8.38
2019-01-30T22:10:28.407Z,7.10
2019-01-30T22:12:56.522Z,7.12
2019-01-30T22:15:24.587Z,7.45
2019-01-30T22:17:55.003Z,8.28
2019-01-30T22:20:25.064Z,8.13
2019-01-30T22:22:53.427Z,7.92
2019-01-30T22:25:23.591Z,8.40
2019-01-30T22:27:51.784Z,8.28
2019-01-30T22:30:25.674Z,6.85
2019-01-30T22:32:54.488Z,7.87
2019-01-30T22:35:23.498Z,8.33
2019-01-30T22:37:51.331Z,8.03
2019-01-30T22:40:19.149Z,7.92
2019-01-30T22:42:49.271Z,8.78
2019-01-30T22:45:17.841Z,12.10
2019-01-30T22:47:49.269Z,8.28
2019-01-30T22:50:17.604Z,8.15
2019-01-30T22:52:46.548Z,9.98
2019-01-30T22:55:16.931Z,9.33
2019-01-30T22:57:45.128Z,9.80
2019-01-30T23:00:30.132Z,9.13
2019-01-30T23:02:59.244Z,10.90
2019-01-30T23:05:42.412Z,10.55
2019-01-30T23:08:48.574Z,10.35
2019-01-30T23:11:45.432Z,11.50
2019-01-30T23:14:32.186Z,11.70
2019-01-30T23:17:40.289Z,12.10
2019-01-30T23:20:39.507Z,12.23
2019-01-30T23:23:44.155Z,12.28
2019-01-30T23:26:43.108Z,12.25
2019-01-30T23:29:39.616Z,10.53
2019-01-30T23:33:01.256Z,9.33
2019-01-30T23:36:25.546Z,14.23
2019-01-30T23:39:31.624Z,12.93
2019-01-30T23:42:48.831Z,15.05
2019-01-30T23:45:56.731Z,20.30
2019-01-30T23:48:50.951Z,11.25
2019-01-30T23:51:50.906Z,12.15
2019-01-30T23:54:44.470Z,12.90
2019-01-30T23:58:02.474Z,11.35
